Time;durP1;ratioP1;P1;durP2;ratioP2;P2;SDS_P1;SDS_P2;PMS_P1;PMS_P2;Temp;Humidity;BMP_temperature;BMP_pressure;BME280_temperature;BME280_humidity;BME280_pressure;Samples;Min_cycle;Max_cycle;Signal;HPM_P1;HPM_P2
2022/01/20 00:03:17;;;;;;;0.60;0.50;;;5.60;99.90;;;;;;5013410;28;20946;-73
2022/01/20 00:27:31;;;;;;;1.20;0.97;;;5.10;99.90;;;;;;5012836;28;20475;-74
2022/01/20 00:32:56;;;;;;;0.60;0.53;;;5.00;99.90;;;;;;5012538;28;20963;-74
2022/01/20 00:35:22;;;;;;;1.13;1.07;;;4.90;99.90;;;;;;5012156;28;20423;-73
2022/01/20 00:37:49;;;;;;;0.60;0.50;;;4.80;99.90;;;;;;5012690;28;20458;-74
2022/01/20 00:40:14;;;;;;;0.60;0.50;;;4.80;99.90;;;;;;5012681;28;20494;-73
2022/01/20 00:42:40;;;;;;;0.60;0.50;;;4.80;99.90;;;;;;5012249;28;20880;-73
2022/01/20 00:45:07;;;;;;;0.60;0.60;;;4.70;99.90;;;;;;5012272;28;20237;-74
2022/01/20 00:47:33;;;;;;;0.60;0.60;;;4.70;99.90;;;;;;5012038;28;20431;-73
2022/01/20 00:49:59;;;;;;;1.53;1.47;;;4.70;99.90;;;;;;5011142;28;20430;-73
2022/01/20 00:52:24;;;;;;;0.60;0.50;;;4.60;99.90;;;;;;5011893;28;20506;-73
2022/01/20 00:54:50;;;;;;;0.70;0.70;;;4.60;99.90;;;;;;5012310;28;20180;-75
2022/01/20 00:57:16;;;;;;;0.60;0.50;;;4.60;99.90;;;;;;5012272;28;20199;-73
2022/01/20 00:59:42;;;;;;;0.60;0.50;;;4.60;99.90;;;;;;5011680;28;20192;-73
2022/01/20 01:02:09;;;;;;;0.60;0.50;;;4.50;99.90;;;;;;5011454;28;20461;-74
2022/01/20 01:04:37;;;;;;;0.60;0.60;;;4.50;99.90;;;;;;5012259;28;20226;-74
2022/01/20 01:09:48;;;;;;;0.60;0.60;;;4.50;99.90;;;;;;5012578;28;20949;-74
2022/01/20 01:12:19;;;;;;;0.60;0.50;;;4.50;99.90;;;;;;5012249;28;20411;-74
2022/01/20 01:14:49;;;;;;;0.60;0.60;;;4.40;99.90;;;;;;5010174;28;20681;-74
2022/01/20 01:22:29;;;;;;;0.60;0.50;;;4.40;99.90;;;;;;5011680;28;20396;-74
2022/01/20 01:24:56;;;;;;;0.80;0.80;;;4.30;99.90;;;;;;5011523;28;20892;-74
2022/01/20 01:27:24;;;;;;;2.73;2.53;;;4.30;99.90;;;;;;5011501;28;20530;-74
2022/01/20 01:32:31;;;;;;;0.60;0.57;;;4.20;99.90;;;;;;5011750;28;20411;-74
2022/01/20 01:34:58;;;;;;;0.60;0.50;;;4.20;99.90;;;;;;5011701;28;20903;-74
2022/01/20 01:40:12;;;;;;;0.60;0.60;;;4.10;99.90;;;;;;5042129;28;20800;-74
2022/01/20 01:42:48;;;;;;;0.60;0.50;;;4.10;99.90;;;;;;5010776;28;20797;-74
2022/01/20 01:45:28;;;;;;;0.60;0.53;;;4.10;99.90;;;;;;5011195;28;20419;-74
2022/01/20 01:47:54;;;;;;;0.60;0.50;;;4.10;99.90;;;;;;5011489;28;20788;-74
2022/01/20 01:50:20;;;;;;;2.20;2.00;;;4.10;99.90;;;;;;5011437;28;20427;-74
2022/01/20 01:52:49;;;;;;;0.80;0.80;;;4.10;99.90;;;;;;5011489;28;20415;-74
2022/01/20 01:55:15;;;;;;;0.60;0.60;;;4.10;99.90;;;;;;5009469;28;20435;-74
2022/01/20 01:57:41;;;;;;;1.23;1.23;;;4.10;99.90;;;;;;5010051;28;20481;-74
2022/01/20 02:00:09;;;;;;;0.60;0.50;;;4.20;99.90;;;;;;5010982;28;20419;-74
2022/01/20 02:02:36;;;;;;;0.60;0.50;;;4.30;99.90;;;;;;5011145;28;20204;-74
2022/01/20 02:05:04;;;;;;;0.60;0.50;;;4.30;99.90;;;;;;5011229;28;20785;-74
2022/01/20 02:20:51;;;;;;;0.97;0.80;;;4.50;99.90;;;;;;5011292;28;20505;-74
2022/01/20 02:23:17;;;;;;;0.60;0.60;;;4.60;99.90;;;;;;5010291;28;20419;-74
2022/01/20 02:25:43;;;;;;;0.60;0.50;;;4.60;99.90;;;;;;5010481;28;20465;-74
2022/01/20 02:28:10;;;;;;;0.60;0.50;;;4.60;99.90;;;;;;5026024;28;20290;-74
2022/01/20 02:30:37;;;;;;;0.60;0.50;;;4.70;99.90;;;;;;5010949;28;20247;-74
2022/01/20 02:33:09;;;;;;;0.60;0.50;;;4.70;99.90;;;;;;5010532;28;20408;-74
2022/01/20 02:35:41;;;;;;;0.70;0.70;;;4.70;99.90;;;;;;5011678;28;20435;-74
2022/01/20 02:38:13;;;;;;;0.60;0.50;;;4.70;99.90;;;;;;5010889;28;20595;-74
2022/01/20 02:45:56;;;;;;;0.60;0.60;;;4.70;99.90;;;;;;5010918;28;20508;-74
2022/01/20 02:48:22;;;;;;;0.60;0.50;;;4.60;99.90;;;;;;5010491;28;20447;-74
2022/01/20 02:50:48;;;;;;;2.60;1.37;;;4.60;99.90;;;;;;5010708;28;20499;-74
2022/01/20 02:53:13;;;;;;;0.60;0.60;;;4.70;99.90;;;;;;5016609;28;20481;-74
2022/01/20 02:55:39;;;;;;;0.60;0.50;;;4.70;99.90;;;;;;5024206;28;20430;-74
2022/01/20 02:58:06;;;;;;;0.60;0.60;;;4.70;99.90;;;;;;5028736;28;20687;-74
2022/01/20 03:00:34;;;;;;;0.60;0.60;;;4.60;99.90;;;;;;5016651;28;20175;-74
2022/01/20 03:03:00;;;;;;;0.60;0.50;;;4.70;99.90;;;;;;5010029;28;20433;-74
2022/01/20 03:05:26;;;;;;;0.97;0.93;;;4.70;99.90;;;;;;5010536;28;20498;-74
2022/01/20 03:07:51;;;;;;;0.60;0.50;;;4.70;99.90;;;;;;5010517;28;21028;-74
2022/01/20 03:10:17;;;;;;;0.60;0.57;;;4.70;99.90;;;;;;5009934;28;20263;-74
2022/01/20 03:12:43;;;;;;;0.60;0.50;;;4.60;99.90;;;;;;5004905;28;20541;-74
2022/01/20 03:15:09;;;;;;;0.60;0.60;;;4.60;99.90;;;;;;5010034;28;20472;-75
2022/01/20 03:17:34;;;;;;;0.60;0.50;;;4.60;99.90;;;;;;5008534;28;20220;-74
2022/01/20 03:20:00;;;;;;;0.60;0.50;;;4.50;99.90;;;;;;5009830;28;20487;-74
2022/01/20 03:22:25;;;;;;;0.60;0.50;;;4.50;99.90;;;;;;5009735;28;20168;-74
2022/01/20 03:24:51;;;;;;;0.60;0.57;;;4.40;99.90;;;;;;5009979;28;20173;-74
2022/01/20 03:27:17;;;;;;;1.13;1.03;;;4.30;99.90;;;;;;5010241;28;20196;-74
2022/01/20 03:29:43;;;;;;;0.60;0.50;;;4.30;99.90;;;;;;5008778;28;20328;-74
2022/01/20 03:32:08;;;;;;;0.60;0.50;;;4.30;99.90;;;;;;5009809;28;20182;-74
2022/01/20 03:34:34;;;;;;;0.60;0.50;;;4.20;99.90;;;;;;5009990;28;20188;-74
2022/01/20 03:37:03;;;;;;;0.60;0.50;;;4.20;99.90;;;;;;5008893;28;20208;-74
2022/01/20 03:39:29;;;;;;;0.60;0.50;;;4.20;99.90;;;;;;5008343;28;20266;-74
2022/01/20 03:41:55;;;;;;;0.60;0.50;;;4.20;99.90;;;;;;5009733;28;20432;-74
2022/01/20 03:44:20;;;;;;;0.60;0.53;;;4.20;99.90;;;;;;5008335;28;20423;-74
2022/01/20 03:46:46;;;;;;;0.60;0.53;;;4.20;99.90;;;;;;5010064;28;20192;-74
2022/01/20 03:49:35;;;;;;;0.60;0.50;;;4.30;99.90;;;;;;5009496;28;20176;-74
2022/01/20 03:52:04;;;;;;;0.60;0.50;;;4.30;99.90;;;;;;5008568;28;20215;-74
2022/01/20 03:54:29;;;;;;;0.60;0.50;;;4.30;99.90;;;;;;5007881;28;20439;-74
2022/01/20 03:56:55;;;;;;;0.60;0.50;;;4.30;99.90;;;;;;5009656;28;20544;-74
2022/01/20 03:59:20;;;;;;;0.60;0.50;;;4.40;99.90;;;;;;5009855;28;20175;-75
2022/01/20 04:01:46;;;;;;;0.60;0.50;;;4.40;99.90;;;;;;5010182;28;20187;-75
2022/01/20 04:04:12;;;;;;;0.60;0.50;;;4.40;99.90;;;;;;5009731;28;20180;-74
2022/01/20 04:06:37;;;;;;;0.70;0.70;;;4.40;99.90;;;;;;5009479;28;20653;-74
2022/01/20 04:09:04;;;;;;;0.60;0.50;;;4.40;99.90;;;;;;5010141;28;20645;-74
2022/01/20 04:11:29;;;;;;;0.70;0.67;;;4.40;99.90;;;;;;5009512;28;20191;-74
2022/01/20 04:13:55;;;;;;;0.60;0.50;;;4.40;99.90;;;;;;5014074;28;20793;-74
2022/01/20 04:16:51;;;;;;;0.60;0.60;;;4.40;99.90;;;;;;5012690;28;20200;-74
2022/01/20 04:19:17;;;;;;;0.60;0.50;;;4.30;99.90;;;;;;5009265;28;20428;-74
2022/01/20 04:21:45;;;;;;;0.60;0.60;;;4.30;99.90;;;;;;5009811;28;20418;-74
2022/01/20 04:24:11;;;;;;;0.60;0.60;;;4.30;99.90;;;;;;5011956;28;20176;-74
2022/01/20 04:26:39;;;;;;;0.60;0.53;;;4.20;99.90;;;;;;5013067;28;20429;-74
2022/01/20 04:29:06;;;;;;;0.60;0.50;;;4.10;99.90;;;;;;5013017;28;20765;-74
2022/01/20 04:31:35;;;;;;;0.60;0.57;;;4.20;99.90;;;;;;5012318;28;20419;-74
2022/01/20 04:34:01;;;;;;;0.60;0.50;;;4.20;99.90;;;;;;5012022;28;20514;-74
2022/01/20 04:36:30;;;;;;;0.60;0.60;;;4.30;99.90;;;;;;5012204;28;20489;-74
2022/01/20 04:38:56;;;;;;;0.60;0.50;;;4.30;99.90;;;;;;5010888;28;20455;-75
2022/01/20 04:41:23;;;;;;;0.60;0.50;;;4.30;99.90;;;;;;5012669;28;20399;-74
2022/01/20 04:43:49;;;;;;;0.60;0.50;;;4.30;99.90;;;;;;5010797;28;20431;-74
2022/01/20 04:46:24;;;;;;;0.60;0.50;;;4.40;99.90;;;;;;5011802;28;20412;-74
2022/01/20 04:59:27;;;;;;;0.63;0.63;;;4.60;99.90;;;;;;5012036;28;20426;-74
2022/01/20 05:01:53;;;;;;;0.60;0.50;;;4.50;99.90;;;;;;5012116;28;20821;-74
2022/01/20 05:04:19;;;;;;;0.90;0.90;;;4.60;99.90;;;;;;5011980;28;20196;-74
2022/01/20 05:06:46;;;;;;;0.60;0.53;;;4.60;99.90;;;;;;5011589;28;20840;-75
2022/01/20 05:09:18;;;;;;;0.60;0.50;;;4.60;99.90;;;;;;5011895;28;20419;-74
2022/01/20 05:11:48;;;;;;;1.00;1.00;;;4.60;99.90;;;;;;5011945;28;20420;-74
2022/01/20 05:14:14;;;;;;;0.60;0.53;;;4.70;99.90;;;;;;5011519;28;20573;-75
2022/01/20 05:16:39;;;;;;;0.60;0.60;;;4.70;99.90;;;;;;5012034;28;20454;-74
2022/01/20 05:19:04;;;;;;;0.60;0.60;;;4.70;99.90;;;;;;5011895;28;20200;-73
2022/01/20 05:21:30;;;;;;;0.60;0.50;;;4.70;99.90;;;;;;5011660;28;20176;-73
2022/01/20 05:23:56;;;;;;;0.60;0.50;;;4.70;99.90;;;;;;5011025;28;20634;-73
2022/01/20 05:26:21;;;;;;;0.60;0.50;;;4.70;99.90;;;;;;5011325;28;20194;-73
2022/01/20 05:28:47;;;;;;;0.60;0.53;;;4.70;99.90;;;;;;5010606;28;20191;-74
2022/01/20 05:31:12;;;;;;;0.60;0.50;;;4.70;99.90;;;;;;5010281;28;20259;-73
2022/01/20 05:33:38;;;;;;;0.60;0.50;;;4.70;99.90;;;;;;5010594;28;20182;-74
2022/01/20 05:36:04;;;;;;;0.70;0.67;;;4.70;99.90;;;;;;5009361;28;20246;-74
2022/01/20 05:38:29;;;;;;;0.60;0.50;;;4.70;99.90;;;;;;5011190;28;20200;-74
2022/01/20 05:40:55;;;;;;;0.60;0.50;;;4.70;99.90;;;;;;5011330;28;20627;-74
2022/01/20 05:43:23;;;;;;;0.60;0.53;;;4.70;99.90;;;;;;5010719;28;20632;-74
2022/01/20 05:45:49;;;;;;;0.60;0.50;;;4.70;99.90;;;;;;5011170;28;20200;-75
2022/01/20 05:48:21;;;;;;;0.60;0.50;;;4.70;99.90;;;;;;5010742;28;21017;-74
2022/01/20 05:50:47;;;;;;;0.60;0.50;;;4.70;99.90;;;;;;5010848;28;20168;-73
2022/01/20 05:53:12;;;;;;;0.60;0.50;;;4.70;99.90;;;;;;5010330;28;20540;-73
2022/01/20 05:55:38;;;;;;;0.60;0.60;;;4.80;99.90;;;;;;5010913;28;20176;-74
2022/01/20 05:58:06;;;;;;;0.60;0.50;;;4.70;99.90;;;;;;5010768;28;20707;-74
2022/01/20 06:00:33;;;;;;;0.90;0.90;;;4.80;99.90;;;;;;5010048;28;20169;-74
2022/01/20 06:05:43;;;;;;;0.60;0.50;;;4.80;99.90;;;;;;5010469;28;20467;-73
2022/01/20 06:08:09;;;;;;;0.60;0.60;;;4.80;99.90;;;;;;5009362;28;21033;-73
2022/01/20 06:10:35;;;;;;;0.60;0.50;;;4.80;99.90;;;;;;5010577;28;20542;-73
2022/01/20 06:13:01;;;;;;;1.10;0.90;;;4.80;99.90;;;;;;5010388;28;20620;-74
2022/01/20 06:15:27;;;;;;;0.60;0.50;;;4.80;99.90;;;;;;5016088;28;20429;-74
2022/01/20 06:17:53;;;;;;;0.60;0.60;;;4.80;99.90;;;;;;5010140;28;20860;-75
2022/01/20 06:20:19;;;;;;;0.60;0.50;;;4.80;99.90;;;;;;5009830;28;20481;-74
2022/01/20 06:22:44;;;;;;;0.60;0.60;;;4.80;99.90;;;;;;5009704;28;20180;-75
2022/01/20 06:25:10;;;;;;;0.60;0.50;;;4.80;99.90;;;;;;5010103;28;20195;-74
2022/01/20 06:27:36;;;;;;;0.60;0.60;;;4.70;99.90;;;;;;5009009;28;20239;-73
2022/01/20 06:30:07;;;;;;;0.60;0.50;;;4.80;99.90;;;;;;5007819;28;20267;-73
2022/01/20 06:32:33;;;;;;;0.60;0.50;;;4.70;99.90;;;;;;5009554;28;20436;-73
2022/01/20 06:35:00;;;;;;;0.60;0.50;;;4.70;99.90;;;;;;5009694;28;20463;-74
2022/01/20 06:37:26;;;;;;;0.60;0.50;;;4.60;99.90;;;;;;5009363;28;20904;-74
2022/01/20 06:39:51;;;;;;;0.60;0.50;;;4.60;99.90;;;;;;5010147;28;20443;-73
2022/01/20 06:42:17;;;;;;;0.60;0.60;;;4.70;99.90;;;;;;5009953;28;20458;-73
2022/01/20 06:44:43;;;;;;;0.60;0.60;;;4.60;99.90;;;;;;5009269;28;20176;-73
2022/01/20 06:47:09;;;;;;;0.60;0.50;;;4.50;99.90;;;;;;5010333;28;20192;-75
2022/01/20 06:49:34;;;;;;;0.60;0.50;;;4.50;99.90;;;;;;5010790;28;20188;-75
2022/01/20 06:52:00;;;;;;;0.60;0.50;;;4.50;99.90;;;;;;5009495;28;22244;-73
2022/01/20 06:54:26;;;;;;;0.60;0.50;;;4.50;99.90;;;;;;5009029;28;20207;-73
2022/01/20 06:56:51;;;;;;;0.60;0.50;;;4.60;99.90;;;;;;5009719;28;20215;-73
2022/01/20 06:59:17;;;;;;;0.60;0.50;;;4.60;99.90;;;;;;5009838;28;20203;-73
2022/01/20 07:01:45;;;;;;;0.60;0.50;;;4.60;99.90;;;;;;5009231;28;20187;-73
2022/01/20 07:04:13;;;;;;;0.60;0.50;;;4.50;99.90;;;;;;4990020;28;20775;-74
2022/01/20 07:06:42;;;;;;;0.60;0.60;;;4.50;99.90;;;;;;5009097;28;20470;-74
2022/01/20 07:09:09;;;;;;;0.60;0.60;;;4.50;99.90;;;;;;5009738;28;20895;-74
2022/01/20 07:11:35;;;;;;;0.60;0.50;;;4.40;99.90;;;;;;5012879;28;20440;-75
2022/01/20 07:14:01;;;;;;;0.60;0.50;;;4.40;99.90;;;;;;5010142;28;20553;-75
2022/01/20 07:16:28;;;;;;;0.60;0.53;;;4.40;99.90;;;;;;5009547;28;20820;-75
2022/01/20 07:18:54;;;;;;;0.60;0.60;;;4.40;99.90;;;;;;5008929;28;20824;-74
2022/01/20 07:21:20;;;;;;;0.60;0.50;;;4.50;99.90;;;;;;5009088;28;20440;-74
2022/01/20 07:23:46;;;;;;;0.60;0.50;;;4.50;99.90;;;;;;5008693;28;20423;-74
2022/01/20 07:26:12;;;;;;;0.60;0.50;;;4.50;99.90;;;;;;5009268;28;20424;-73
2022/01/20 07:28:37;;;;;;;0.60;0.50;;;4.50;99.90;;;;;;5009216;28;20492;-74
2022/01/20 07:31:03;;;;;;;2.20;2.10;;;4.50;99.90;;;;;;5009427;28;20172;-74
2022/01/20 07:33:29;;;;;;;0.60;0.50;;;4.50;99.90;;;;;;5008776;28;20553;-73
2022/01/20 07:35:54;;;;;;;0.60;0.53;;;4.50;99.90;;;;;;5008739;28;20221;-74
2022/01/20 07:38:20;;;;;;;0.60;0.57;;;4.50;99.90;;;;;;5008779;28;20207;-73
2022/01/20 07:40:45;;;;;;;0.60;0.50;;;4.50;99.90;;;;;;4989780;28;20169;-74
2022/01/20 07:43:11;;;;;;;0.60;0.50;;;4.50;99.90;;;;;;4994991;28;20173;-74
2022/01/20 07:45:37;;;;;;;0.60;0.50;;;4.40;99.90;;;;;;5008757;28;20180;-74
2022/01/20 07:48:03;;;;;;;0.60;0.50;;;4.50;99.90;;;;;;5009143;28;20441;-73
2022/01/20 07:50:28;;;;;;;0.60;0.57;;;4.30;99.90;;;;;;5008721;28;20580;-73
2022/01/20 07:52:54;;;;;;;0.60;0.57;;;4.20;99.90;;;;;;5008473;28;20549;-74
2022/01/20 07:55:20;;;;;;;0.87;0.87;;;4.20;99.90;;;;;;5008519;28;20199;-74
2022/01/20 07:57:45;;;;;;;0.60;0.50;;;4.20;99.90;;;;;;5009564;28;20617;-73
2022/01/20 08:00:12;;;;;;;0.70;0.70;;;4.20;99.90;;;;;;5012380;28;20430;-73
2022/01/20 08:02:37;;;;;;;0.60;0.50;;;4.20;99.90;;;;;;5013653;28;20172;-74
2022/01/20 08:05:03;;;;;;;0.60;0.50;;;4.10;99.90;;;;;;5012942;28;20717;-76
2022/01/20 08:07:29;;;;;;;0.60;0.57;;;4.20;99.90;;;;;;5012229;28;20236;-74
2022/01/20 08:09:58;;;;;;;0.60;0.50;;;4.30;99.90;;;;;;5011076;28;20451;-73
2022/01/20 08:12:27;;;;;;;0.80;0.80;;;4.30;99.90;;;;;;5070600;28;20173;-74
2022/01/20 08:14:54;;;;;;;0.60;0.50;;;4.40;99.90;;;;;;5017385;28;20426;-74
2022/01/20 08:17:20;;;;;;;0.60;0.50;;;4.40;99.90;;;;;;5073030;28;20493;-74
2022/01/20 08:19:46;;;;;;;0.60;0.57;;;4.40;99.90;;;;;;5022008;28;20415;-74
2022/01/20 08:22:11;;;;;;;0.60;0.50;;;4.40;99.90;;;;;;5011819;28;20479;-73
2022/01/20 08:24:37;;;;;;;1.20;0.80;;;4.40;99.90;;;;;;5011249;28;20668;-74
2022/01/20 08:27:03;;;;;;;0.60;0.50;;;4.40;99.90;;;;;;5011561;28;20279;-74
2022/01/20 08:29:29;;;;;;;0.60;0.60;;;4.50;99.90;;;;;;5012135;28;20175;-74
2022/01/20 08:31:54;;;;;;;0.60;0.50;;;4.60;99.90;;;;;;5010634;28;20423;-74
2022/01/20 08:34:20;;;;;;;0.70;0.70;;;4.70;99.90;;;;;;5011622;28;20183;-74
2022/01/20 08:36:46;;;;;;;0.60;0.50;;;4.90;99.90;;;;;;5011861;28;20195;-73
2022/01/20 08:39:39;;;;;;;0.60;0.50;;;5.10;99.90;;;;;;5011548;28;20203;-74
2022/01/20 08:42:05;;;;;;;0.60;0.50;;;5.20;99.90;;;;;;5011844;28;20503;-73
2022/01/20 08:44:31;;;;;;;0.60;0.57;;;5.40;99.90;;;;;;5011155;28;20419;-75
2022/01/20 08:46:58;;;;;;;0.60;0.50;;;5.50;99.90;;;;;;5011445;28;20465;-73
2022/01/20 08:49:24;;;;;;;0.60;0.60;;;5.50;99.90;;;;;;5011735;28;20426;-73
2022/01/20 08:51:51;;;;;;;2.03;0.77;;;5.60;99.90;;;;;;5011527;28;20782;-73
2022/01/20 08:54:17;;;;;;;0.60;0.50;;;5.60;99.90;;;;;;5011118;28;20518;-73
2022/01/20 08:56:43;;;;;;;0.60;0.50;;;5.60;99.90;;;;;;5011410;28;20967;-73
2022/01/20 08:59:09;;;;;;;0.60;0.50;;;5.70;99.90;;;;;;5011334;28;20591;-73
2022/01/20 09:01:36;;;;;;;0.60;0.50;;;5.80;99.90;;;;;;5011341;28;20942;-73
2022/01/20 09:04:03;;;;;;;0.60;0.50;;;6.00;99.90;;;;;;5011286;28;20491;-73
2022/01/20 09:06:29;;;;;;;0.60;0.50;;;6.30;99.90;;;;;;5011330;28;20450;-72
2022/01/20 09:08:55;;;;;;;0.60;0.50;;;6.60;99.90;;;;;;5010094;28;20500;-72
2022/01/20 09:11:22;;;;;;;0.70;0.70;;;7.20;99.90;;;;;;5011205;28;20431;-73
2022/01/20 09:16:34;;;;;;;10.13;1.47;;;7.90;99.90;;;;;;5010926;28;20474;-72
2022/01/20 09:19:00;;;;;;;0.67;0.60;;;7.70;99.90;;;;;;5011153;28;20484;-72
2022/01/20 09:21:27;;;;;;;0.67;0.50;;;7.40;99.90;;;;;;5011426;28;20411;-73
2022/01/20 09:23:53;;;;;;;0.67;0.57;;;6.90;99.90;;;;;;5011071;28;20167;-73
2022/01/20 09:26:19;;;;;;;0.67;0.57;;;6.50;99.90;;;;;;5010987;28;20419;-73
2022/01/20 09:28:44;;;;;;;0.67;0.60;;;6.30;99.90;;;;;;5010988;28;20181;-72
2022/01/20 09:31:10;;;;;;;0.60;0.60;;;6.00;99.90;;;;;;5011001;28;20184;-73
2022/01/20 09:33:36;;;;;;;0.67;0.60;;;5.70;99.90;;;;;;5010504;28;20184;-72
2022/01/20 09:36:08;;;;;;;0.73;0.73;;;5.70;99.90;;;;;;5010969;28;20176;-73
2022/01/20 09:38:34;;;;;;;0.67;0.50;;;5.50;99.90;;;;;;5010710;28;20208;-73
2022/01/20 09:41:01;;;;;;;0.67;0.60;;;5.40;99.90;;;;;;5010252;28;20424;-73
2022/01/20 09:43:26;;;;;;;0.60;0.60;;;5.50;99.90;;;;;;5010184;28;20184;-73
2022/01/20 09:45:55;;;;;;;0.60;0.50;;;5.40;99.90;;;;;;5010778;28;20407;-74
2022/01/20 09:48:22;;;;;;;0.67;0.50;;;5.40;99.90;;;;;;5009467;28;20224;-73
2022/01/20 09:50:50;;;;;;;0.67;0.50;;;5.40;99.90;;;;;;5008693;28;20432;-73
2022/01/20 09:53:16;;;;;;;0.60;0.60;;;5.50;99.90;;;;;;5010207;28;20435;-72
2022/01/20 09:55:42;;;;;;;0.67;0.50;;;5.80;99.90;;;;;;5010536;28;20820;-72
2022/01/20 09:58:12;;;;;;;0.67;0.60;;;6.10;99.90;;;;;;5009165;28;20975;-72
2022/01/20 10:00:39;;;;;;;0.67;0.53;;;7.20;99.90;;;;;;5009724;28;20415;-72
2022/01/20 10:03:08;;;;;;;1.87;1.77;;;8.30;99.90;;;;;;5010343;28;20399;-72
2022/01/20 10:05:41;;;;;;;0.67;0.53;;;9.10;99.90;;;;;;5010668;28;20454;-72
2022/01/20 10:08:18;;;;;;;3.23;3.03;;;9.50;99.90;;;;;;5010392;28;20478;-73
2022/01/20 10:10:59;;;;;;;0.70;0.60;;;9.90;99.90;;;;;;5009159;28;20435;-72
2022/01/20 10:13:28;;;;;;;1.13;1.03;;;10.50;99.90;;;;;;5010014;28;20440;-73
2022/01/20 10:16:07;;;;;;;1.60;1.50;;;10.50;99.90;;;;;;5011724;28;20410;-73
2022/01/20 10:18:55;;;;;;;0.70;0.60;;;10.10;99.90;;;;;;5011636;28;20671;-74
2022/01/20 10:21:35;;;;;;;0.67;0.60;;;9.60;99.90;;;;;;5009412;28;20411;-74
2022/01/20 10:24:10;;;;;;;0.97;0.97;;;9.00;99.90;;;;;;5007581;28;20424;-74
2022/01/20 10:26:36;;;;;;;0.70;0.60;;;8.50;99.90;;;;;;5009606;28;20469;-74
2022/01/20 10:29:06;;;;;;;0.67;0.60;;;8.10;99.90;;;;;;5011423;28;20525;-74
2022/01/20 10:31:41;;;;;;;0.67;0.60;;;7.50;99.90;;;;;;5011123;28;20415;-74
2022/01/20 10:34:20;;;;;;;0.70;0.60;;;7.00;99.90;;;;;;5010934;28;20410;-74
2022/01/20 10:36:52;;;;;;;0.67;0.60;;;6.70;99.90;;;;;;5010524;28;20958;-74
2022/01/20 10:39:17;;;;;;;0.67;0.50;;;6.40;99.90;;;;;;5010572;28;20443;-74
2022/01/20 10:41:43;;;;;;;0.67;0.60;;;6.10;99.90;;;;;;5025976;28;20521;-75
2022/01/20 10:44:14;;;;;;;0.67;0.60;;;6.00;99.90;;;;;;5010525;28;20169;-73
2022/01/20 10:46:48;;;;;;;0.67;0.60;;;5.80;99.90;;;;;;5010602;28;20246;-74
2022/01/20 10:49:14;;;;;;;0.70;0.50;;;5.90;99.90;;;;;;5010456;28;20425;-75
2022/01/20 10:51:41;;;;;;;0.67;0.60;;;5.90;99.90;;;;;;5010404;28;20402;-75
2022/01/20 10:54:11;;;;;;;0.67;0.53;;;5.90;99.90;;;;;;5010035;28;20419;-74
2022/01/20 10:56:54;;;;;;;0.67;0.60;;;5.80;99.90;;;;;;5010604;28;20836;-75
2022/01/20 10:59:21;;;;;;;0.67;0.50;;;5.70;99.90;;;;;;5010263;28;20458;-74
2022/01/20 11:01:57;;;;;;;0.67;0.60;;;5.60;99.90;;;;;;5009187;28;20442;-73
2022/01/20 11:04:23;;;;;;;1.03;0.93;;;5.60;99.90;;;;;;5009465;28;20471;-74
2022/01/20 11:06:53;;;;;;;0.67;0.60;;;5.90;99.90;;;;;;5010596;28;20827;-75
2022/01/20 11:09:20;;;;;;;0.67;0.60;;;6.10;99.90;;;;;;5009134;28;20649;-74
2022/01/20 11:11:48;;;;;;;1.77;1.67;;;6.30;99.90;;;;;;5008521;28;20420;-74
2022/01/20 11:14:14;;;;;;;0.70;0.60;;;6.30;99.90;;;;;;5010219;28;20423;-74
2022/01/20 11:16:40;;;;;;;0.67;0.57;;;6.30;99.90;;;;;;5009665;28;20449;-74
2022/01/20 11:19:18;;;;;;;0.67;0.50;;;6.10;99.90;;;;;;5027039;28;20885;-74
2022/01/20 11:21:45;;;;;;;0.67;0.50;;;6.10;99.90;;;;;;5012232;28;20418;-74
2022/01/20 11:24:25;;;;;;;0.70;0.57;;;5.80;99.90;;;;;;5010344;28;21121;-74
2022/01/20 11:26:56;;;;;;;0.70;0.60;;;5.70;99.90;;;;;;5011533;28;20468;-75
2022/01/20 11:29:25;;;;;;;2.60;1.20;;;5.70;99.90;;;;;;5012875;28;20904;-74
2022/01/20 11:31:52;;;;;;;0.67;0.50;;;5.60;99.90;;;;;;5026607;28;20423;-74
2022/01/20 11:34:20;;;;;;;0.67;0.60;;;5.70;99.90;;;;;;5011035;28;20419;-74
2022/01/20 11:36:47;;;;;;;0.67;0.60;;;5.60;99.90;;;;;;5011925;28;20434;-74
2022/01/20 11:39:13;;;;;;;0.67;0.60;;;5.50;99.90;;;;;;5012032;28;20458;-74
2022/01/20 11:41:48;;;;;;;0.67;0.50;;;5.40;99.90;;;;;;5011058;28;20419;-74
2022/01/20 11:44:17;;;;;;;0.67;0.60;;;5.20;99.90;;;;;;5012209;28;20422;-74
2022/01/20 11:46:45;;;;;;;0.70;0.60;;;5.00;99.90;;;;;;5009633;28;20985;-74
2022/01/20 11:49:13;;;;;;;0.67;0.60;;;5.00;99.90;;;;;;5011996;28;20412;-74
2022/01/20 11:51:43;;;;;;;0.67;0.50;;;5.00;99.90;;;;;;5026925;28;20416;-74
2022/01/20 11:54:11;;;;;;;0.67;0.57;;;4.90;99.90;;;;;;5018684;28;21124;-74
2022/01/20 11:56:41;;;;;;;0.67;0.50;;;5.00;99.90;;;;;;5010535;28;21252;-73
2022/01/20 11:59:09;;;;;;;0.67;0.60;;;5.10;99.90;;;;;;5011716;28;20481;-73
2022/01/20 12:01:52;;;;;;;0.70;0.60;;;5.10;99.90;;;;;;5011299;28;20419;-73
2022/01/20 12:04:51;;;;;;;0.67;0.60;;;5.30;99.90;;;;;;5010887;28;20399;-73
2022/01/20 12:07:33;;;;;;;0.70;0.70;;;6.70;99.90;;;;;;4979180;28;20462;-74
2022/01/20 12:10:24;;;;;;;0.70;0.60;;;9.20;99.90;;;;;;5027149;28;20415;-73
2022/01/20 12:12:50;;;;;;;1.13;1.03;;;11.90;99.90;;;;;;5011899;28;20411;-74
2022/01/20 12:15:20;;;;;;;0.70;0.60;;;13.70;99.90;;;;;;5011058;28;20491;-74
2022/01/20 12:18:03;;;;;;;1.20;1.10;;;15.30;95.60;;;;;;5010904;28;20204;-74
2022/01/20 12:20:29;;;;;;;0.70;0.60;;;16.60;89.10;;;;;;5010764;28;20550;-74
2022/01/20 12:22:54;;;;;;;0.77;0.77;;;17.80;81.40;;;;;;5010059;28;20445;-75
2022/01/20 12:25:23;;;;;;;0.70;0.70;;;18.00;71.50;;;;;;5008064;28;20180;-74
2022/01/20 12:27:49;;;;;;;0.90;0.70;;;17.80;70.10;;;;;;5009475;28;20573;-74
2022/01/20 12:30:24;;;;;;;1.73;0.73;;;17.80;69.60;;;;;;5010455;28;20431;-74
2022/01/20 12:33:00;;;;;;;4.93;0.80;;;18.10;68.00;;;;;;5010256;28;20402;-73
2022/01/20 12:35:41;;;;;;;0.90;0.67;;;18.00;66.40;;;;;;5010711;28;20435;-74
2022/01/20 12:38:26;;;;;;;1.33;1.23;;;17.90;66.90;;;;;;5010107;28;20465;-74
2022/01/20 12:41:06;;;;;;;1.10;0.70;;;16.80;63.20;;;;;;5009451;28;20431;-74
2022/01/20 12:43:35;;;;;;;0.70;0.60;;;15.50;66.10;;;;;;5011064;28;20545;-74
2022/01/20 12:46:01;;;;;;;8.33;1.30;;;15.10;68.60;;;;;;5013661;28;20769;-74
2022/01/20 12:48:27;;;;;;;0.70;0.60;;;14.30;71.10;;;;;;5014707;28;20419;-74
2022/01/20 12:50:59;;;;;;;0.70;0.60;;;14.30;72.10;;;;;;5015725;28;20184;-74
2022/01/20 12:53:39;;;;;;;1.20;1.10;;;13.60;73.40;;;;;;5014055;28;20188;-74
2022/01/20 12:56:06;;;;;;;0.80;0.80;;;12.80;76.10;;;;;;5013589;28;20431;-74
2022/01/20 12:58:52;;;;;;;0.70;0.60;;;11.90;79.70;;;;;;5011833;28;20500;-74
2022/01/20 13:01:19;;;;;;;0.73;0.73;;;11.00;83.40;;;;;;5013131;28;20412;-73
2022/01/20 13:03:45;;;;;;;0.70;0.60;;;10.10;88.90;;;;;;5012983;28;20991;-73
2022/01/20 13:06:22;;;;;;;0.70;0.60;;;9.70;93.40;;;;;;5013010;28;20403;-73
2022/01/20 13:08:58;;;;;;;0.70;0.60;;;9.60;96.70;;;;;;5012816;28;20435;-74
2022/01/20 13:11:33;;;;;;;0.70;0.60;;;9.60;99.00;;;;;;5012813;28;20411;-74
2022/01/20 13:14:00;;;;;;;0.70;0.60;;;9.30;99.90;;;;;;5012995;28;20522;-74
2022/01/20 13:16:26;;;;;;;0.70;0.60;;;9.40;99.90;;;;;;5013334;28;20868;-74
2022/01/20 13:18:56;;;;;;;0.70;0.60;;;10.50;99.60;;;;;;5011641;28;20485;-74
2022/01/20 13:21:40;;;;;;;0.70;0.60;;;11.90;97.90;;;;;;5011505;28;20547;-73
2022/01/20 13:24:08;;;;;;;3.90;1.67;;;12.60;91.80;;;;;;5011256;28;20483;-74
2022/01/20 13:26:52;;;;;;;0.70;0.60;;;12.40;91.50;;;;;;5013044;28;20431;-74
2022/01/20 13:29:19;;;;;;;0.70;0.60;;;11.60;92.10;;;;;;5012755;28;20429;-74
2022/01/20 13:31:48;;;;;;;0.70;0.60;;;10.60;93.40;;;;;;5011719;28;20461;-74
2022/01/20 13:34:19;;;;;;;0.70;0.67;;;9.80;94.70;;;;;;5012089;28;20487;-73
2022/01/20 13:36:48;;;;;;;0.70;0.60;;;9.10;97.50;;;;;;5012579;28;20462;-73
2022/01/20 13:39:35;;;;;;;2.37;1.30;;;8.50;99.90;;;;;;5012866;28;20469;-74
2022/01/20 13:42:38;;;;;;;0.70;0.60;;;8.10;99.90;;;;;;5008361;28;20420;-73
2022/01/20 13:45:20;;;;;;;0.70;0.60;;;7.90;99.90;;;;;;4999889;28;20427;-74
2022/01/20 13:47:56;;;;;;;0.70;0.63;;;7.50;99.90;;;;;;5012421;28;20950;-73
2022/01/20 13:50:28;;;;;;;0.70;0.60;;;7.20;99.90;;;;;;5012559;28;20814;-74
2022/01/20 13:52:54;;;;;;;0.70;0.60;;;7.00;99.90;;;;;;5011040;28;20507;-74
2022/01/20 13:55:24;;;;;;;0.70;0.60;;;6.80;99.90;;;;;;5009764;28;20454;-74
2022/01/20 13:57:51;;;;;;;0.67;0.53;;;6.50;99.90;;;;;;5011946;28;20549;-74
2022/01/20 14:00:20;;;;;;;0.70;0.60;;;6.40;99.90;;;;;;5010932;28;20828;-74
2022/01/20 14:02:47;;;;;;;0.67;0.60;;;6.20;99.90;;;;;;5011966;28;20411;-73
2022/01/20 14:05:14;;;;;;;0.70;0.60;;;6.10;99.90;;;;;;5011187;28;20419;-74
2022/01/20 14:07:40;;;;;;;0.67;0.60;;;6.00;99.90;;;;;;5013712;28;20424;-74
2022/01/20 14:10:05;;;;;;;0.67;0.57;;;5.90;99.90;;;;;;5013168;28;20410;-74
2022/01/20 14:12:31;;;;;;;0.70;0.60;;;6.10;99.90;;;;;;5013281;28;20183;-74
2022/01/20 14:14:57;;;;;;;0.67;0.60;;;6.10;99.90;;;;;;5012835;28;20207;-74
2022/01/20 14:17:23;;;;;;;0.70;0.60;;;6.10;99.90;;;;;;5012970;28;20196;-74